sensor_id;sensor_type;location;lat;lon;timestamp;temperature;humidity
20459;DHT22;10388;52.314;7.938;2023-04-03T00:13:37;2.30;99.90
20459;DHT22;10388;52.314;7.938;2023-04-03T00:16:23;2.30;99.90
20459;DHT22;10388;52.314;7.938;2023-04-03T00:36:52;2.20;99.90
20459;DHT22;10388;52.314;7.938;2023-04-03T00:39:53;2.10;99.90
20459;DHT22;10388;52.314;7.938;2023-04-03T01:06:19;1.90;99.90
20459;DHT22;10388;52.314;7.938;2023-04-03T01:09:31;1.90;99.90
20459;DHT22;10388;52.314;7.938;2023-04-03T01:15:54;1.80;99.90
20459;DHT22;10388;52.314;7.938;2023-04-03T01:18:44;1.70;99.90
20459;DHT22;10388;52.314;7.938;2023-04-03T01:34:05;1.50;99.90
20459;DHT22;10388;52.314;7.938;2023-04-03T01:43:51;1.50;99.90
20459;DHT22;10388;52.314;7.938;2023-04-03T01:47:07;1.50;99.90
20459;DHT22;10388;52.314;7.938;2023-04-03T02:00:50;1.30;99.90
20459;DHT22;10388;52.314;7.938;2023-04-03T02:12:39;1.20;99.90
20459;DHT22;10388;52.314;7.938;2023-04-03T02:19:28;1.20;99.90
20459;DHT22;10388;52.314;7.938;2023-04-03T02:22:28;1.10;99.90
20459;DHT22;10388;52.314;7.938;2023-04-03T02:35:14;1.00;99.90
20459;DHT22;10388;52.314;7.938;2023-04-03T02:51:05;0.70;99.90
20459;DHT22;10388;52.314;7.938;2023-04-03T02:57:46;0.70;99.90
20459;DHT22;10388;52.314;7.938;2023-04-03T03:01:10;0.60;99.90
20459;DHT22;10388;52.314;7.938;2023-04-03T03:04:19;0.60;99.90
20459;DHT22;10388;52.314;7.938;2023-04-03T03:07:17;0.60;99.90
20459;DHT22;10388;52.314;7.938;2023-04-03T03:10:01;0.50;99.90
20459;DHT22;10388;52.314;7.938;2023-04-03T03:13:14;0.40;99.90
20459;DHT22;10388;52.314;7.938;2023-04-03T03:23:17;0.30;99.90
20459;DHT22;10388;52.314;7.938;2023-04-03T03:26:35;0.30;99.90
20459;DHT22;10388;52.314;7.938;2023-04-03T03:36:13;0.20;99.90
20459;DHT22;10388;52.314;7.938;2023-04-03T03:56:51;-0.10;99.90
20459;DHT22;10388;52.314;7.938;2023-04-03T03:59:51;-0.10;99.90
20459;DHT22;10388;52.314;7.938;2023-04-03T04:02:54;-0.10;99.90
20459;DHT22;10388;52.314;7.938;2023-04-03T04:09:46;-0.10;99.90
20459;DHT22;10388;52.314;7.938;2023-04-03T04:16:28;-0.20;99.90
20459;DHT22;10388;52.314;7.938;2023-04-03T04:28:57;-0.20;99.90
20459;DHT22;10388;52.314;7.938;2023-04-03T04:31:27;-0.30;99.90
20459;DHT22;10388;52.314;7.938;2023-04-03T04:33:58;-0.30;99.90
20459;DHT22;10388;52.314;7.938;2023-04-03T04:36:29;-0.30;99.90
20459;DHT22;10388;52.314;7.938;2023-04-03T04:38:59;-0.30;99.90
20459;DHT22;10388;52.314;7.938;2023-04-03T04:41:30;-0.40;99.90
20459;DHT22;10388;52.314;7.938;2023-04-03T04:44:00;-0.40;99.90
20459;DHT22;10388;52.314;7.938;2023-04-03T04:46:31;-0.40;99.90
20459;DHT22;10388;52.314;7.938;2023-04-03T04:49:02;-0.40;99.90
20459;DHT22;10388;52.314;7.938;2023-04-03T04:51:32;-0.40;99.90
20459;DHT22;10388;52.314;7.938;2023-04-03T04:54:03;-0.40;99.90
20459;DHT22;10388;52.314;7.938;2023-04-03T04:56:34;-0.40;99.90
20459;DHT22;10388;52.314;7.938;2023-04-03T04:59:04;-0.40;99.90
20459;DHT22;10388;52.314;7.938;2023-04-03T05:01:35;-0.40;99.90
20459;DHT22;10388;52.314;7.938;2023-04-03T05:04:06;-0.40;99.90
20459;DHT22;10388;52.314;7.938;2023-04-03T05:06:36;-0.40;99.90
20459;DHT22;10388;52.314;7.938;2023-04-03T05:09:07;-0.50;99.90
20459;DHT22;10388;52.314;7.938;2023-04-03T05:11:39;-0.50;99.90
20459;DHT22;10388;52.314;7.938;2023-04-03T05:14:09;-0.50;99.90
20459;DHT22;10388;52.314;7.938;2023-04-03T05:16:40;-0.50;99.90
20459;DHT22;10388;52.314;7.938;2023-04-03T05:19:10;-0.50;99.90
20459;DHT22;10388;52.314;7.938;2023-04-03T05:21:41;-0.50;99.90
20459;DHT22;10388;52.314;7.938;2023-04-03T05:24:11;-0.50;99.90
20459;DHT22;10388;52.314;7.938;2023-04-03T05:26:42;-0.50;99.90
20459;DHT22;10388;52.314;7.938;2023-04-03T05:29:13;-0.50;99.90
20459;DHT22;10388;52.314;7.938;2023-04-03T05:31:43;-0.50;99.90
20459;DHT22;10388;52.314;7.938;2023-04-03T05:34:14;-0.60;99.90
20459;DHT22;10388;52.314;7.938;2023-04-03T05:36:45;-0.60;99.90
20459;DHT22;10388;52.314;7.938;2023-04-03T05:39:15;-0.60;99.90
20459;DHT22;10388;52.314;7.938;2023-04-03T05:41:46;-0.50;99.90
20459;DHT22;10388;52.314;7.938;2023-04-03T05:44:16;-0.50;99.90
20459;DHT22;10388;52.314;7.938;2023-04-03T05:46:47;-0.50;99.90
20459;DHT22;10388;52.314;7.938;2023-04-03T05:49:18;-0.50;99.90
20459;DHT22;10388;52.314;7.938;2023-04-03T05:51:48;-0.40;99.90
20459;DHT22;10388;52.314;7.938;2023-04-03T05:54:22;-0.40;99.90
20459;DHT22;10388;52.314;7.938;2023-04-03T05:56:53;-0.30;99.90
20459;DHT22;10388;52.314;7.938;2023-04-03T05:59:24;-0.20;99.90
20459;DHT22;10388;52.314;7.938;2023-04-03T06:01:54;-0.20;99.90
20459;DHT22;10388;52.314;7.938;2023-04-03T06:04:25;-0.20;99.90
20459;DHT22;10388;52.314;7.938;2023-04-03T06:06:57;-0.20;99.90
20459;DHT22;10388;52.314;7.938;2023-04-03T06:09:28;-0.10;99.90
20459;DHT22;10388;52.314;7.938;2023-04-03T06:12:02;0.00;99.90
20459;DHT22;10388;52.314;7.938;2023-04-03T06:14:32;0.00;99.90
20459;DHT22;10388;52.314;7.938;2023-04-03T06:17:03;0.10;99.90
20459;DHT22;10388;52.314;7.938;2023-04-03T06:19:35;0.20;99.90
20459;DHT22;10388;52.314;7.938;2023-04-03T06:22:06;0.20;99.90
20459;DHT22;10388;52.314;7.938;2023-04-03T06:24:36;0.30;99.90
20459;DHT22;10388;52.314;7.938;2023-04-03T06:27:07;0.40;99.90
20459;DHT22;10388;52.314;7.938;2023-04-03T06:29:38;0.40;99.90
20459;DHT22;10388;52.314;7.938;2023-04-03T06:32:08;0.50;99.90
20459;DHT22;10388;52.314;7.938;2023-04-03T06:34:39;0.50;99.90
20459;DHT22;10388;52.314;7.938;2023-04-03T06:37:15;0.60;99.90
20459;DHT22;10388;52.314;7.938;2023-04-03T06:39:47;0.60;99.90
20459;DHT22;10388;52.314;7.938;2023-04-03T06:42:17;0.70;99.90
20459;DHT22;10388;52.314;7.938;2023-04-03T06:44:48;0.80;99.90
20459;DHT22;10388;52.314;7.938;2023-04-03T06:47:18;0.90;99.90
20459;DHT22;10388;52.314;7.938;2023-04-03T06:49:49;0.90;99.90
20459;DHT22;10388;52.314;7.938;2023-04-03T06:52:20;1.00;99.90
20459;DHT22;10388;52.314;7.938;2023-04-03T06:54:51;1.10;99.90
20459;DHT22;10388;52.314;7.938;2023-04-03T06:57:27;1.10;99.90
20459;DHT22;10388;52.314;7.938;2023-04-03T06:59:57;1.20;99.90
20459;DHT22;10388;52.314;7.938;2023-04-03T07:02:28;1.30;99.90
20459;DHT22;10388;52.314;7.938;2023-04-03T07:04:58;1.40;99.90
20459;DHT22;10388;52.314;7.938;2023-04-03T07:07:29;1.50;99.90
20459;DHT22;10388;52.314;7.938;2023-04-03T07:10:00;1.50;99.90
20459;DHT22;10388;52.314;7.938;2023-04-03T07:12:31;1.70;99.90
20459;DHT22;10388;52.314;7.938;2023-04-03T07:15:01;1.70;99.90
20459;DHT22;10388;52.314;7.938;2023-04-03T07:17:33;1.80;99.90
20459;DHT22;10388;52.314;7.938;2023-04-03T07:20:04;1.90;99.90
20459;DHT22;10388;52.314;7.938;2023-04-03T07:22:34;2.00;99.90
20459;DHT22;10388;52.314;7.938;2023-04-03T07:25:05;2.00;99.90
20459;DHT22;10388;52.314;7.938;2023-04-03T07:27:37;2.10;99.90
20459;DHT22;10388;52.314;7.938;2023-04-03T07:30:08;2.20;99.90
20459;DHT22;10388;52.314;7.938;2023-04-03T07:32:39;2.20;99.90
20459;DHT22;10388;52.314;7.938;2023-04-03T07:35:10;2.30;99.90
20459;DHT22;10388;52.314;7.938;2023-04-03T07:37:41;2.40;99.90
20459;DHT22;10388;52.314;7.938;2023-04-03T07:40:12;2.50;99.90
20459;DHT22;10388;52.314;7.938;2023-04-03T07:42:43;2.50;99.90
20459;DHT22;10388;52.314;7.938;2023-04-03T07:45:13;2.60;99.90
20459;DHT22;10388;52.314;7.938;2023-04-03T07:47:44;2.70;99.90
20459;DHT22;10388;52.314;7.938;2023-04-03T07:50:15;2.80;99.90
20459;DHT22;10388;52.314;7.938;2023-04-03T07:52:46;2.90;99.90
20459;DHT22;10388;52.314;7.938;2023-04-03T07:55:16;2.90;99.90
20459;DHT22;10388;52.314;7.938;2023-04-03T07:57:47;3.00;99.90
20459;DHT22;10388;52.314;7.938;2023-04-03T08:00:18;3.00;99.90
20459;DHT22;10388;52.314;7.938;2023-04-03T08:02:50;3.10;99.90
20459;DHT22;10388;52.314;7.938;2023-04-03T08:05:21;3.30;99.90
20459;DHT22;10388;52.314;7.938;2023-04-03T08:07:52;3.30;99.90
20459;DHT22;10388;52.314;7.938;2023-04-03T08:10:23;3.40;99.90
20459;DHT22;10388;52.314;7.938;2023-04-03T08:12:53;3.40;99.90
20459;DHT22;10388;52.314;7.938;2023-04-03T08:15:24;3.50;99.90
20459;DHT22;10388;52.314;7.938;2023-04-03T08:17:54;3.60;99.90
20459;DHT22;10388;52.314;7.938;2023-04-03T08:20:25;3.80;99.90
20459;DHT22;10388;52.314;7.938;2023-04-03T08:22:56;3.90;99.90
20459;DHT22;10388;52.314;7.938;2023-04-03T08:25:27;4.10;99.90
20459;DHT22;10388;52.314;7.938;2023-04-03T08:27:59;4.10;99.90
20459;DHT22;10388;52.314;7.938;2023-04-03T08:30:30;4.10;99.90
20459;DHT22;10388;52.314;7.938;2023-04-03T08:33:02;4.10;99.90
20459;DHT22;10388;52.314;7.938;2023-04-03T08:35:32;4.20;99.90
20459;DHT22;10388;52.314;7.938;2023-04-03T08:38:03;4.20;99.90
20459;DHT22;10388;52.314;7.938;2023-04-03T08:40:33;4.20;99.90
20459;DHT22;10388;52.314;7.938;2023-04-03T08:43:19;4.30;99.90
20459;DHT22;10388;52.314;7.938;2023-04-03T08:45:53;4.40;99.90
20459;DHT22;10388;52.314;7.938;2023-04-03T08:48:33;4.60;99.90
20459;DHT22;10388;52.314;7.938;2023-04-03T08:51:15;4.70;99.90
20459;DHT22;10388;52.314;7.938;2023-04-03T08:54:00;4.80;99.90
20459;DHT22;10388;52.314;7.938;2023-04-03T08:56:34;4.90;99.90
20459;DHT22;10388;52.314;7.938;2023-04-03T08:59:11;5.00;99.90
20459;DHT22;10388;52.314;7.938;2023-04-03T09:01:43;5.00;99.90
20459;DHT22;10388;52.314;7.938;2023-04-03T09:04:15;5.10;99.90
20459;DHT22;10388;52.314;7.938;2023-04-03T09:06:54;5.20;99.90
20459;DHT22;10388;52.314;7.938;2023-04-03T09:09:41;4.90;99.90
20459;DHT22;10388;52.314;7.938;2023-04-03T09:12:21;5.00;99.90
20459;DHT22;10388;52.314;7.938;2023-04-03T09:23:19;5.30;99.90
20459;DHT22;10388;52.314;7.938;2023-04-03T09:25:54;5.40;99.90
20459;DHT22;10388;52.314;7.938;2023-04-03T09:28:27;5.40;99.90
20459;DHT22;10388;52.314;7.938;2023-04-03T09:31:00;5.70;99.90
20459;DHT22;10388;52.314;7.938;2023-04-03T09:33:30;5.80;99.90
20459;DHT22;10388;52.314;7.938;2023-04-03T09:36:01;5.80;99.90
20459;DHT22;10388;52.314;7.938;2023-04-03T09:38:32;5.70;99.90
20459;DHT22;10388;52.314;7.938;2023-04-03T09:41:07;5.90;99.90
20459;DHT22;10388;52.314;7.938;2023-04-03T09:43:38;6.10;99.90
20459;DHT22;10388;52.314;7.938;2023-04-03T09:46:25;6.30;99.90
20459;DHT22;10388;52.314;7.938;2023-04-03T09:49:03;5.90;99.90
20459;DHT22;10388;52.314;7.938;2023-04-03T09:51:35;5.70;99.90
20459;DHT22;10388;52.314;7.938;2023-04-03T09:54:34;6.00;99.90
20459;DHT22;10388;52.314;7.938;2023-04-03T09:57:10;5.90;99.90
20459;DHT22;10388;52.314;7.938;2023-04-03T10:00:00;6.10;99.90
20459;DHT22;10388;52.314;7.938;2023-04-03T10:02:36;6.50;99.90
20459;DHT22;10388;52.314;7.938;2023-04-03T10:10:47;6.60;99.90
20459;DHT22;10388;52.314;7.938;2023-04-03T10:13:20;6.40;99.90
20459;DHT22;10388;52.314;7.938;2023-04-03T10:16:06;6.20;99.90
20459;DHT22;10388;52.314;7.938;2023-04-03T10:18:41;6.20;99.90
20459;DHT22;10388;52.314;7.938;2023-04-03T10:21:42;6.20;99.90
20459;DHT22;10388;52.314;7.938;2023-04-03T10:26:58;6.70;99.90
20459;DHT22;10388;52.314;7.938;2023-04-03T10:32:13;7.30;99.90
20459;DHT22;10388;52.314;7.938;2023-04-03T10:34:47;7.20;99.90
20459;DHT22;10388;52.314;7.938;2023-04-03T10:37:25;7.50;99.90
20459;DHT22;10388;52.314;7.938;2023-04-03T10:40:15;7.00;99.90
20459;DHT22;10388;52.314;7.938;2023-04-03T10:46:00;7.30;99.90
20459;DHT22;10388;52.314;7.938;2023-04-03T10:48:47;7.30;99.90
20459;DHT22;10388;52.314;7.938;2023-04-03T10:51:33;7.00;99.90
20459;DHT22;10388;52.314;7.938;2023-04-03T10:54:19;7.20;99.90
20459;DHT22;10388;52.314;7.938;2023-04-03T10:57:01;7.60;99.90
20459;DHT22;10388;52.314;7.938;2023-04-03T10:59:35;7.40;99.90
20459;DHT22;10388;52.314;7.938;2023-04-03T11:02:11;7.40;99.90
20459;DHT22;10388;52.314;7.938;2023-04-03T11:04:48;8.10;99.90
20459;DHT22;10388;52.314;7.938;2023-04-03T11:07:24;8.40;99.90
20459;DHT22;10388;52.314;7.938;2023-04-03T11:10:03;7.90;99.90
20459;DHT22;10388;52.314;7.938;2023-04-03T11:12:52;8.00;99.90
20459;DHT22;10388;52.314;7.938;2023-04-03T11:15:24;8.20;99.90
20459;DHT22;10388;52.314;7.938;2023-04-03T11:18:11;8.60;99.90
20459;DHT22;10388;52.314;7.938;2023-04-03T11:21:04;8.90;99.90
20459;DHT22;10388;52.314;7.938;2023-04-03T11:23:39;8.20;99.90
20459;DHT22;10388;52.314;7.938;2023-04-03T11:26:16;8.60;99.90
20459;DHT22;10388;52.314;7.938;2023-04-03T11:28:53;8.70;99.90
20459;DHT22;10388;52.314;7.938;2023-04-03T11:31:38;9.20;99.90
20459;DHT22;10388;52.314;7.938;2023-04-03T11:34:42;9.50;99.90
20459;DHT22;10388;52.314;7.938;2023-04-03T11:37:27;9.60;99.90
20459;DHT22;10388;52.314;7.938;2023-04-03T11:40:07;9.30;99.90
20459;DHT22;10388;52.314;7.938;2023-04-03T11:42:40;9.30;99.90
20459;DHT22;10388;52.314;7.938;2023-04-03T11:47:58;9.00;99.90
20459;DHT22;10388;52.314;7.938;2023-04-03T11:50:42;8.40;99.90
20459;DHT22;10388;52.314;7.938;2023-04-03T11:58:24;8.50;99.90
20459;DHT22;10388;52.314;7.938;2023-04-03T12:08:47;9.40;99.90
20459;DHT22;10388;52.314;7.938;2023-04-03T12:11:30;9.30;99.90
20459;DHT22;10388;52.314;7.938;2023-04-03T12:14:03;8.30;99.90
20459;DHT22;10388;52.314;7.938;2023-04-03T12:19:35;7.70;99.90
20459;DHT22;10388;52.314;7.938;2023-04-03T12:22:18;7.60;99.90
20459;DHT22;10388;52.314;7.938;2023-04-03T12:24:52;7.90;99.90
20459;DHT22;10388;52.314;7.938;2023-04-03T12:27:40;7.90;99.90
20459;DHT22;10388;52.314;7.938;2023-04-03T12:30:29;7.70;99.90
20459;DHT22;10388;52.314;7.938;2023-04-03T12:33:27;7.60;99.90
20459;DHT22;10388;52.314;7.938;2023-04-03T12:36:15;8.10;99.90
20459;DHT22;10388;52.314;7.938;2023-04-03T12:41:35;9.00;99.90
20459;DHT22;10388;52.314;7.938;2023-04-03T12:47:22;9.30;99.90
20459;DHT22;10388;52.314;7.938;2023-04-03T12:49:53;9.70;99.90
20459;DHT22;10388;52.314;7.938;2023-04-03T12:52:33;8.80;99.90
20459;DHT22;10388;52.314;7.938;2023-04-03T12:55:18;8.20;99.90
20459;DHT22;10388;52.314;7.938;2023-04-03T12:57:49;8.70;99.90
20459;DHT22;10388;52.314;7.938;2023-04-03T13:00:21;9.10;99.90
20459;DHT22;10388;52.314;7.938;2023-04-03T13:02:52;9.30;99.90
20459;DHT22;10388;52.314;7.938;2023-04-03T13:05:23;9.40;99.90
20459;DHT22;10388;52.314;7.938;2023-04-03T13:08:05;9.20;99.90
20459;DHT22;10388;52.314;7.938;2023-04-03T13:11:06;9.40;99.90
20459;DHT22;10388;52.314;7.938;2023-04-03T13:13:34;9.80;99.90
20459;DHT22;10388;52.314;7.938;2023-04-03T13:16:10;9.90;99.90
20459;DHT22;10388;52.314;7.938;2023-04-03T13:18:41;9.20;99.90
20459;DHT22;10388;52.314;7.938;2023-04-03T13:21:17;8.50;99.90
20459;DHT22;10388;52.314;7.938;2023-04-03T13:23:51;8.60;99.90
20459;DHT22;10388;52.314;7.938;2023-04-03T13:26:23;8.40;99.90
20459;DHT22;10388;52.314;7.938;2023-04-03T13:29:03;8.10;99.90
20459;DHT22;10388;52.314;7.938;2023-04-03T13:31:37;8.10;99.90
20459;DHT22;10388;52.314;7.938;2023-04-03T13:36:56;7.90;99.90
20459;DHT22;10388;52.314;7.938;2023-04-03T13:39:30;7.80;99.90
20459;DHT22;10388;52.314;7.938;2023-04-03T13:42:37;7.60;99.90
20459;DHT22;10388;52.314;7.938;2023-04-03T13:45:31;8.30;99.90
20459;DHT22;10388;52.314;7.938;2023-04-03T13:48:20;8.60;99.90
20459;DHT22;10388;52.314;7.938;2023-04-03T13:51:01;9.00;99.90
20459;DHT22;10388;52.314;7.938;2023-04-03T13:53:34;9.60;99.90
20459;DHT22;10388;52.314;7.938;2023-04-03T13:56:30;8.60;99.90
20459;DHT22;10388;52.314;7.938;2023-04-03T13:59:19;8.70;99.90
20459;DHT22;10388;52.314;7.938;2023-04-03T14:02:09;8.70;99.90
20459;DHT22;10388;52.314;7.938;2023-04-03T14:07:15;10.00;99.90
20459;DHT22;10388;52.314;7.938;2023-04-03T14:09:47;10.00;99.90
20459;DHT22;10388;52.314;7.938;2023-04-03T14:12:33;10.10;99.90
20459;DHT22;10388;52.314;7.938;2023-04-03T14:15:10;10.00;99.90
20459;DHT22;10388;52.314;7.938;2023-04-03T14:17:42;10.00;99.90
20459;DHT22;10388;52.314;7.938;2023-04-03T14:20:17;10.30;99.90
20459;DHT22;10388;52.314;7.938;2023-04-03T14:22:49;10.40;99.90
20459;DHT22;10388;52.314;7.938;2023-04-03T14:25:21;10.30;99.90
20459;DHT22;10388;52.314;7.938;2023-04-03T14:27:53;9.30;99.90
20459;DHT22;10388;52.314;7.938;2023-04-03T14:30:28;8.70;99.90
20459;DHT22;10388;52.314;7.938;2023-04-03T14:33:00;8.60;99.90
20459;DHT22;10388;52.314;7.938;2023-04-03T14:35:31;8.80;99.90
20459;DHT22;10388;52.314;7.938;2023-04-03T14:38:01;9.40;99.90
20459;DHT22;10388;52.314;7.938;2023-04-03T14:40:32;9.30;99.90
20459;DHT22;10388;52.314;7.938;2023-04-03T14:43:03;9.10;99.90
20459;DHT22;10388;52.314;7.938;2023-04-03T14:45:33;8.70;99.90
20459;DHT22;10388;52.314;7.938;2023-04-03T14:48:04;8.40;99.90
20459;DHT22;10388;52.314;7.938;2023-04-03T14:50:36;8.80;99.90
20459;DHT22;10388;52.314;7.938;2023-04-03T14:53:06;9.20;99.90
20459;DHT22;10388;52.314;7.938;2023-04-03T14:55:37;9.80;99.90
20459;DHT22;10388;52.314;7.938;2023-04-03T14:58:13;10.30;99.90
20459;DHT22;10388;52.314;7.938;2023-04-03T15:00:44;10.20;99.90
20459;DHT22;10388;52.314;7.938;2023-04-03T15:03:17;9.60;99.90
20459;DHT22;10388;52.314;7.938;2023-04-03T15:05:48;8.70;99.90
20459;DHT22;10388;52.314;7.938;2023-04-03T15:08:22;8.60;99.90
20459;DHT22;10388;52.314;7.938;2023-04-03T15:10:54;8.40;99.90
20459;DHT22;10388;52.314;7.938;2023-04-03T15:13:25;8.30;99.90
20459;DHT22;10388;52.314;7.938;2023-04-03T15:15:56;8.50;99.90
20459;DHT22;10388;52.314;7.938;2023-04-03T15:18:27;8.50;99.90
20459;DHT22;10388;52.314;7.938;2023-04-03T15:21:01;8.70;99.90
20459;DHT22;10388;52.314;7.938;2023-04-03T15:23:32;8.90;99.90
20459;DHT22;10388;52.314;7.938;2023-04-03T15:26:02;9.10;99.90
20459;DHT22;10388;52.314;7.938;2023-04-03T15:28:35;9.30;99.90
20459;DHT22;10388;52.314;7.938;2023-04-03T15:31:07;9.10;99.90
20459;DHT22;10388;52.314;7.938;2023-04-03T15:33:39;8.80;99.90
20459;DHT22;10388;52.314;7.938;2023-04-03T15:36:09;8.60;99.90
20459;DHT22;10388;52.314;7.938;2023-04-03T15:38:40;8.70;99.90
20459;DHT22;10388;52.314;7.938;2023-04-03T15:41:10;8.70;99.90
20459;DHT22;10388;52.314;7.938;2023-04-03T15:43:41;8.30;99.90
20459;DHT22;10388;52.314;7.938;2023-04-03T15:46:12;8.30;99.90
20459;DHT22;10388;52.314;7.938;2023-04-03T15:48:43;8.20;99.90
20459;DHT22;10388;52.314;7.938;2023-04-03T15:51:15;8.00;99.90
20459;DHT22;10388;52.314;7.938;2023-04-03T15:53:45;7.90;99.90
20459;DHT22;10388;52.314;7.938;2023-04-03T15:56:16;8.10;99.90
20459;DHT22;10388;52.314;7.938;2023-04-03T15:58:46;8.20;99.90
20459;DHT22;10388;52.314;7.938;2023-04-03T16:01:17;8.10;99.90
20459;DHT22;10388;52.314;7.938;2023-04-03T16:03:47;8.20;99.90
20459;DHT22;10388;52.314;7.938;2023-04-03T16:06:18;8.00;99.90
20459;DHT22;10388;52.314;7.938;2023-04-03T16:08:49;7.90;99.90
20459;DHT22;10388;52.314;7.938;2023-04-03T16:11:20;7.60;99.90
20459;DHT22;10388;52.314;7.938;2023-04-03T16:13:50;7.70;99.90
20459;DHT22;10388;52.314;7.938;2023-04-03T16:16:21;7.70;99.90
20459;DHT22;10388;52.314;7.938;2023-04-03T16:18:54;7.70;99.90
20459;DHT22;10388;52.314;7.938;2023-04-03T16:21:27;7.80;99.90
20459;DHT22;10388;52.314;7.938;2023-04-03T16:23:58;7.80;99.90
20459;DHT22;10388;52.314;7.938;2023-04-03T16:26:29;7.80;99.90
20459;DHT22;10388;52.314;7.938;2023-04-03T16:29:00;7.70;99.90
20459;DHT22;10388;52.314;7.938;2023-04-03T16:31:32;7.60;99.90
20459;DHT22;10388;52.314;7.938;2023-04-03T16:34:03;7.70;99.90
20459;DHT22;10388;52.314;7.938;2023-04-03T16:36:33;7.70;99.90
20459;DHT22;10388;52.314;7.938;2023-04-03T16:39:04;7.60;99.90
20459;DHT22;10388;52.314;7.938;2023-04-03T16:41:35;7.60;99.90
20459;DHT22;10388;52.314;7.938;2023-04-03T16:44:06;7.70;99.90
20459;DHT22;10388;52.314;7.938;2023-04-03T16:46:37;7.70;99.90
20459;DHT22;10388;52.314;7.938;2023-04-03T16:49:08;7.60;99.90
20459;DHT22;10388;52.314;7.938;2023-04-03T16:51:38;7.50;99.90
20459;DHT22;10388;52.314;7.938;2023-04-03T16:54:09;7.40;99.90
20459;DHT22;10388;52.314;7.938;2023-04-03T16:56:41;7.40;99.90
20459;DHT22;10388;52.314;7.938;2023-04-03T16:59:12;7.30;99.90
20459;DHT22;10388;52.314;7.938;2023-04-03T17:01:43;7.30;99.90
20459;DHT22;10388;52.314;7.938;2023-04-03T17:04:13;7.30;99.90
20459;DHT22;10388;52.314;7.938;2023-04-03T17:06:44;7.20;99.90
20459;DHT22;10388;52.314;7.938;2023-04-03T17:09:15;7.20;99.90
20459;DHT22;10388;52.314;7.938;2023-04-03T17:11:46;7.10;99.90
20459;DHT22;10388;52.314;7.938;2023-04-03T17:14:17;7.10;99.90
20459;DHT22;10388;52.314;7.938;2023-04-03T17:16:47;7.10;99.90
20459;DHT22;10388;52.314;7.938;2023-04-03T17:19:18;7.10;99.90
20459;DHT22;10388;52.314;7.938;2023-04-03T17:21:48;7.00;99.90
20459;DHT22;10388;52.314;7.938;2023-04-03T17:24:19;7.00;99.90
20459;DHT22;10388;52.314;7.938;2023-04-03T17:26:50;6.90;99.90
20459;DHT22;10388;52.314;7.938;2023-04-03T17:29:20;6.90;99.90
20459;DHT22;10388;52.314;7.938;2023-04-03T17:31:51;6.80;99.90
20459;DHT22;10388;52.314;7.938;2023-04-03T17:34:21;6.80;99.90
20459;DHT22;10388;52.314;7.938;2023-04-03T17:36:52;6.80;99.90
20459;DHT22;10388;52.314;7.938;2023-04-03T17:39:23;6.70;99.90
20459;DHT22;10388;52.314;7.938;2023-04-03T17:41:53;6.60;99.90
20459;DHT22;10388;52.314;7.938;2023-04-03T17:44:24;6.60;99.90
20459;DHT22;10388;52.314;7.938;2023-04-03T17:46:55;6.50;99.90
20459;DHT22;10388;52.314;7.938;2023-04-03T17:49:26;6.50;99.90
20459;DHT22;10388;52.314;7.938;2023-04-03T17:51:56;6.50;99.90
20459;DHT22;10388;52.314;7.938;2023-04-03T17:54:27;6.40;99.90
20459;DHT22;10388;52.314;7.938;2023-04-03T17:56:57;6.30;99.90
20459;DHT22;10388;52.314;7.938;2023-04-03T17:59:28;6.20;99.90
20459;DHT22;10388;52.314;7.938;2023-04-03T18:01:58;6.20;99.90
20459;DHT22;10388;52.314;7.938;2023-04-03T18:04:29;6.10;99.90
20459;DHT22;10388;52.314;7.938;2023-04-03T18:07:01;6.20;99.90
20459;DHT22;10388;52.314;7.938;2023-04-03T18:09:33;6.10;99.90
20459;DHT22;10388;52.314;7.938;2023-04-03T18:12:04;6.00;99.90
20459;DHT22;10388;52.314;7.938;2023-04-03T18:14:37;5.90;99.90
20459;DHT22;10388;52.314;7.938;2023-04-03T18:17:08;5.80;99.90
20459;DHT22;10388;52.314;7.938;2023-04-03T18:19:38;5.70;99.90
20459;DHT22;10388;52.314;7.938;2023-04-03T18:22:14;5.70;99.90
20459;DHT22;10388;52.314;7.938;2023-04-03T18:24:47;5.60;99.90
20459;DHT22;10388;52.314;7.938;2023-04-03T18:27:20;5.60;99.90
20459;DHT22;10388;52.314;7.938;2023-04-03T18:29:58;5.50;99.90
20459;DHT22;10388;52.314;7.938;2023-04-03T18:32:29;5.50;99.90
20459;DHT22;10388;52.314;7.938;2023-04-03T18:35:00;5.40;99.90
20459;DHT22;10388;52.314;7.938;2023-04-03T18:37:31;5.30;99.90
20459;DHT22;10388;52.314;7.938;2023-04-03T18:40:01;5.20;99.90
20459;DHT22;10388;52.314;7.938;2023-04-03T18:42:32;5.10;99.90
20459;DHT22;10388;52.314;7.938;2023-04-03T18:45:04;5.00;99.90
20459;DHT22;10388;52.314;7.938;2023-04-03T18:47:35;4.90;99.90
20459;DHT22;10388;52.314;7.938;2023-04-03T18:50:07;4.90;99.90
20459;DHT22;10388;52.314;7.938;2023-04-03T18:52:37;4.90;99.90
20459;DHT22;10388;52.314;7.938;2023-04-03T18:55:08;4.80;99.90
20459;DHT22;10388;52.314;7.938;2023-04-03T18:57:40;4.80;99.90
20459;DHT22;10388;52.314;7.938;2023-04-03T19:00:12;4.70;99.90
20459;DHT22;10388;52.314;7.938;2023-04-03T19:02:43;4.60;99.90
20459;DHT22;10388;52.314;7.938;2023-04-03T19:05:15;4.50;99.90
20459;DHT22;10388;52.314;7.938;2023-04-03T19:07:47;4.50;99.90
20459;DHT22;10388;52.314;7.938;2023-04-03T19:10:18;4.40;99.90
20459;DHT22;10388;52.314;7.938;2023-04-03T19:12:50;4.30;99.90
20459;DHT22;10388;52.314;7.938;2023-04-03T19:15:22;4.30;99.90
20459;DHT22;10388;52.314;7.938;2023-04-03T19:17:53;4.20;99.90
20459;DHT22;10388;52.314;7.938;2023-04-03T19:20:24;4.20;99.90
20459;DHT22;10388;52.314;7.938;2023-04-03T19:22:55;4.20;99.90
20459;DHT22;10388;52.314;7.938;2023-04-03T19:25:26;4.20;99.90
20459;DHT22;10388;52.314;7.938;2023-04-03T19:27:56;4.20;99.90
20459;DHT22;10388;52.314;7.938;2023-04-03T19:30:27;4.00;99.90
20459;DHT22;10388;52.314;7.938;2023-04-03T19:32:58;3.90;99.90
20459;DHT22;10388;52.314;7.938;2023-04-03T19:35:29;3.80;99.90
20459;DHT22;10388;52.314;7.938;2023-04-03T19:37:59;3.80;99.90
20459;DHT22;10388;52.314;7.938;2023-04-03T19:40:30;3.70;99.90
20459;DHT22;10388;52.314;7.938;2023-04-03T19:43:01;3.60;99.90
20459;DHT22;10388;52.314;7.938;2023-04-03T19:45:32;3.50;99.90
20459;DHT22;10388;52.314;7.938;2023-04-03T19:48:03;3.40;99.90
20459;DHT22;10388;52.314;7.938;2023-04-03T19:50:35;3.30;99.90
20459;DHT22;10388;52.314;7.938;2023-04-03T19:53:05;3.20;99.90
20459;DHT22;10388;52.314;7.938;2023-04-03T19:55:37;3.20;99.90
20459;DHT22;10388;52.314;7.938;2023-04-03T19:58:08;3.10;99.90
20459;DHT22;10388;52.314;7.938;2023-04-03T20:00:40;3.10;99.90
20459;DHT22;10388;52.314;7.938;2023-04-03T20:03:10;3.10;99.90
20459;DHT22;10388;52.314;7.938;2023-04-03T20:05:41;3.00;99.90
20459;DHT22;10388;52.314;7.938;2023-04-03T20:08:12;3.00;99.90
20459;DHT22;10388;52.314;7.938;2023-04-03T20:10:43;3.00;99.90
20459;DHT22;10388;52.314;7.938;2023-04-03T20:13:13;3.00;99.90
20459;DHT22;10388;52.314;7.938;2023-04-03T20:15:44;3.00;99.90
20459;DHT22;10388;52.314;7.938;2023-04-03T20:18:17;2.90;99.90
20459;DHT22;10388;52.314;7.938;2023-04-03T20:20:56;2.80;99.90
20459;DHT22;10388;52.314;7.938;2023-04-03T20:23:28;2.80;99.90
20459;DHT22;10388;52.314;7.938;2023-04-03T20:26:00;2.80;99.90